Погода Айморесна неделю

Минас-Жерайс, Бразилия

25 июня-01 июля
  • 25июня
    Сегодня
    +17°
    +32°
    Ясно и безоблачно
    ВремяПогодаТемператураВлажностьДавлениеВетер, м/сВероятность осадков
    00:00Ясно и безоблачно+20°C80 %756 мм1.8 м/с5 %
    03:00Ясно и безоблачно+18°C96 %755 мм1.6 м/с5 %
    06:00Практически безоблачно+18°C98 %756 мм0.5 м/с5 %
    09:00Практически безоблачно+23°C77 %757 мм0.3 м/с5 %
    12:00Ясно и безоблачно+29°C46 %756 мм0.8 м/с5 %
    15:00Ясно и безоблачно+32°C35 %754 мм0.8 м/с5 %
    18:00Практически безоблачно+25°C45 %754 мм0.8 м/с5 %
    21:00Ясно и безоблачно+24°C58 %756 мм3.7 м/с5 %
  • 26июня
    Среда
    +17°
    +32°
    Облачно с прояснениями
    ВремяПогодаТемператураВлажностьДавлениеВетер, м/сВероятность осадков
    00:00Ясно и безоблачно+20°C80 %757 мм2.0 м/с5 %
    03:00Ясно и безоблачно+18°C88 %756 мм1.1 м/с2 %
    06:00Ясно и безоблачно+17°C93 %756 мм0.6 м/с5 %
    09:00Ясно и безоблачно+24°C68 %757 мм0.3 м/с5 %
    12:00Практически безоблачно+30°C46 %755 мм0.8 м/с3 %
    15:00Облачно с прояснениями+31°C38 %753 мм1.5 м/с3 %
    18:00Практически безоблачно+26°C59 %753 мм0.7 м/с3 %
    21:00Облачно с прояснениями+24°C61 %754 мм1.0 м/с7 %
  • 27июня
    Четверг
    +17°
    +33°
    Небольшая облачность
    ВремяПогодаТемператураВлажностьДавлениеВетер, м/сВероятность осадков
    00:00Ясно и безоблачно+21°C76 %754 мм1.4 м/с3 %
    03:00Ясно и безоблачно+18°C92 %753 мм1.4 м/с5 %
    06:00Ясно и безоблачно+18°C95 %753 мм0.7 м/с5 %
    09:00Облачно с прояснениями+24°C68 %754 мм0.7 м/с5 %
    12:00Небольшая облачность+29°C41 %752 мм1.4 м/с5 %
    15:00Небольшая облачность+32°C30 %751 мм0.6 м/с5 %
    18:00Облачно с прояснениями+25°C56 %751 мм1.8 м/с3 %
    21:00Облачно с прояснениями+24°C60 %753 мм4.0 м/с3 %
  • 28июня
    Пятница
    +17°
    +32°
    Практически безоблачно
    ВремяПогодаТемператураВлажностьДавлениеВетер, м/сВероятность осадков
    00:00Небольшая облачность+20°C81 %754 мм1.1 м/с5 %
    03:00Ясно и безоблачно+18°C92 %753 мм1.4 м/с4 %
    06:00Ясно и безоблачно+18°C96 %754 мм0.9 м/с8 %
    09:00Небольшая облачность+25°C71 %755 мм1.6 м/с27 %
    12:00Практически безоблачно+30°C45 %754 мм0.8 м/с23 %
    15:00Практически безоблачно+32°C38 %752 мм0.8 м/с26 %
    18:00Практически безоблачно+26°C50 %753 мм2.5 м/с13 %
    21:00Ясно и безоблачно+24°C67 %754 мм2.1 м/с8 %
  • 29июня
    Суббота
    +17°
    +33°
    Ясно и безоблачно
    ВремяПогодаТемператураВлажностьДавлениеВетер, м/сВероятность осадков
    00:00Ясно и безоблачно+20°C85 %754 мм1.8 м/с5 %
    03:00Ясно и безоблачно+19°C95 %753 мм1.6 м/с5 %
    06:00Практически безоблачно+18°C98 %754 мм0.6 м/с5 %
    09:00Ясно и безоблачно+24°C75 %755 мм0.5 м/с5 %
    12:00Ясно и безоблачно+30°C45 %753 мм1.6 м/с5 %
    15:00Ясно и безоблачно+33°C33 %750 мм1.6 м/с5 %
    18:00Ясно и безоблачно+26°C47 %751 мм1.4 м/с5 %
    21:00Ясно и безоблачно+24°C53 %752 мм2.3 м/с5 %
Мы используем cookies
Соглашаюсь